createdAt,value
2023-04-21T00:00:16.988Z,18.00
2023-04-21T00:02:46.873Z,17.50
2023-04-21T00:05:15.868Z,20.00
2023-04-21T00:07:43.738Z,18.00
2023-04-21T00:10:12.830Z,18.50
2023-04-21T00:12:41.505Z,15.50
2023-04-21T00:15:10.299Z,17.00
2023-04-21T00:17:39.465Z,15.00
2023-04-21T00:20:10.851Z,16.67
2023-04-21T00:22:38.754Z,14.50
2023-04-21T00:25:08.264Z,13.33
2023-04-21T00:27:37.030Z,13.67
2023-04-21T00:30:07.155Z,15.67
2023-04-21T00:32:35.077Z,14.50
2023-04-21T00:35:02.968Z,17.00
2023-04-21T00:37:31.612Z,16.00
2023-04-21T00:40:00.322Z,15.33
2023-04-21T00:42:29.081Z,16.33
2023-04-21T00:44:57.739Z,16.00
2023-04-21T00:47:25.739Z,15.00
2023-04-21T00:49:53.622Z,17.50
2023-04-21T00:52:21.614Z,18.00
2023-04-21T00:54:49.585Z,20.00
2023-04-21T00:57:17.952Z,17.00
2023-04-21T00:59:45.804Z,18.00
2023-04-21T01:02:17.321Z,19.50
2023-04-21T01:04:45.946Z,18.00
2023-04-21T01:07:14.798Z,19.50
2023-04-21T01:09:43.523Z,18.67
2023-04-21T01:12:13.498Z,18.00
2023-04-21T01:14:42.233Z,15.00
2023-04-21T01:17:10.804Z,15.50
2023-04-21T01:19:43.932Z,14.00
2023-04-21T01:22:13.762Z,17.00
2023-04-21T01:24:49.752Z,15.00
2023-04-21T01:27:21.131Z,16.00
2023-04-21T01:29:52.916Z,19.50
2023-04-21T01:32:26.863Z,17.50
2023-04-21T01:34:58.297Z,18.00
2023-04-21T01:37:33.494Z,18.00
2023-04-21T01:40:07.617Z,20.00
2023-04-21T01:42:43.694Z,18.00
2023-04-21T01:45:12.479Z,20.00
2023-04-21T01:47:40.579Z,18.50
2023-04-21T01:50:10.267Z,18.67
2023-04-21T01:52:39.000Z,16.67
2023-04-21T01:55:07.692Z,19.00
2023-04-21T01:57:36.430Z,19.50
2023-04-21T02:00:06.354Z,18.00
2023-04-21T02:02:35.127Z,15.00
2023-04-21T02:05:04.244Z,18.33
2023-04-21T02:07:33.001Z,17.00
2023-04-21T02:10:01.979Z,16.33
2023-04-21T02:12:30.699Z,15.00
2023-04-21T02:14:58.601Z,18.00
2023-04-21T02:17:26.458Z,17.50
2023-04-21T02:19:55.155Z,14.33
2023-04-21T02:22:23.362Z,13.50
2023-04-21T02:24:51.821Z,17.00
2023-04-21T02:27:19.599Z,19.50
2023-04-21T02:29:48.223Z,15.00
2023-04-21T02:32:25.649Z,19.50
2023-04-21T02:34:55.121Z,14.00
2023-04-21T02:37:24.314Z,14.00
2023-04-21T02:39:52.281Z,16.00
2023-04-21T02:42:20.248Z,19.00
2023-04-21T02:44:49.091Z,18.00
2023-04-21T02:47:17.837Z,17.67
2023-04-21T02:49:46.612Z,13.33
2023-04-21T02:52:15.313Z,15.67
2023-04-21T02:54:43.963Z,16.00
2023-04-21T02:57:11.769Z,16.00
2023-04-21T02:59:39.573Z,17.00
2023-04-21T03:02:07.415Z,17.00
2023-04-21T03:04:36.493Z,15.33
2023-04-21T03:07:04.380Z,14.50
2023-04-21T03:09:32.288Z,13.50
2023-04-21T03:12:00.108Z,17.00
2023-04-21T03:14:27.949Z,16.50
2023-04-21T03:16:56.741Z,16.00
2023-04-21T03:19:24.693Z,14.00
2023-04-21T03:21:53.331Z,15.00
2023-04-21T03:24:21.707Z,18.00
2023-04-21T03:26:51.068Z,17.33
2023-04-21T03:29:20.054Z,14.33
2023-04-21T03:31:49.004Z,14.67
2023-04-21T03:34:16.986Z,14.00
2023-04-21T03:36:44.771Z,15.00
2023-04-21T03:39:19.860Z,16.00
2023-04-21T03:41:48.768Z,16.00
2023-04-21T03:44:16.616Z,16.50
2023-04-21T03:46:45.331Z,14.00
2023-04-21T03:49:13.210Z,16.50
2023-04-21T03:51:41.954Z,17.00
2023-04-21T03:54:09.734Z,17.00
2023-04-21T03:56:37.730Z,17.50
2023-04-21T03:59:06.415Z,15.50
2023-04-21T04:01:37.232Z,18.00
2023-04-21T04:04:05.482Z,18.00
2023-04-21T04:06:33.568Z,20.00
2023-04-21T04:09:04.755Z,18.00
2023-04-21T04:11:33.313Z,14.00
2023-04-21T04:14:01.167Z,13.00
2023-04-21T04:16:30.129Z,12.67
2023-04-21T04:18:58.852Z,13.00
2023-04-21T04:21:28.502Z,17.67
2023-04-21T04:23:57.089Z,14.00
2023-04-21T04:26:25.901Z,12.00
2023-04-21T04:28:56.699Z,16.33
2023-04-21T04:31:25.707Z,20.00
2023-04-21T04:33:55.788Z,33.33
2023-04-21T04:36:28.748Z,21.50
2023-04-21T04:38:58.671Z,15.00
2023-04-21T04:41:31.060Z,61.33
2023-04-21T04:44:00.982Z,36.00
2023-04-21T04:46:29.907Z,44.00
2023-04-21T04:48:58.614Z,27.00
2023-04-21T04:51:27.695Z,14.00
2023-04-21T04:53:56.389Z,30.00
2023-04-21T04:56:25.933Z,43.00
2023-04-21T04:58:54.647Z,22.00
2023-04-21T05:01:24.587Z,18.50
2023-04-21T05:03:54.215Z,36.33
2023-04-21T05:06:24.233Z,42.33
2023-04-21T05:08:52.096Z,17.00
2023-04-21T05:11:20.885Z,19.00
2023-04-21T05:13:49.591Z,20.50
2023-04-21T05:16:19.189Z,53.00
2023-04-21T05:18:51.154Z,25.33
2023-04-21T05:21:27.963Z,20.00
2023-04-21T05:23:59.442Z,13.50
2023-04-21T05:26:30.149Z,18.00
2023-04-21T05:28:59.271Z,16.00
2023-04-21T05:31:28.940Z,11.00
2023-04-21T05:33:58.435Z,25.33
2023-04-21T05:36:28.187Z,11.00
2023-04-21T05:38:55.977Z,11.00
2023-04-21T05:41:24.871Z,18.50
2023-04-21T05:43:52.718Z,18.00
2023-04-21T05:46:21.752Z,12.00
2023-04-21T05:48:50.416Z,11.00
2023-04-21T05:51:19.071Z,14.00
2023-04-21T05:53:47.829Z,14.33
2023-04-21T05:56:16.445Z,12.67
2023-04-21T05:58:44.280Z,12.00
2023-04-21T06:01:13.386Z,10.00
2023-04-21T06:03:41.304Z,9.00
2023-04-21T06:06:11.711Z,11.00
2023-04-21T06:08:40.398Z,13.00
2023-04-21T06:11:08.341Z,11.50
2023-04-21T06:13:38.230Z,0.50
2023-04-21T06:16:06.992Z,9.00
2023-04-21T06:18:36.726Z,11.40
2023-04-21T06:21:05.824Z,11.33
2023-04-21T06:23:33.725Z,10.50
2023-04-21T06:26:07.152Z,8.00
2023-04-21T06:28:37.093Z,8.00
2023-04-21T06:31:08.680Z,11.67
2023-04-21T06:33:37.092Z,14.50
2023-04-21T06:36:06.671Z,8.33
2023-04-21T06:38:36.352Z,6.60
2023-04-21T06:41:05.877Z,16.50
2023-04-21T06:43:34.525Z,21.00
2023-04-21T06:46:04.179Z,9.40
2023-04-21T06:48:32.296Z,12.50
2023-04-21T06:51:02.857Z,10.33
2023-04-21T06:53:31.838Z,12.00
2023-04-21T06:56:00.440Z,7.33
2023-04-21T06:58:28.936Z,9.00
2023-04-21T07:00:58.588Z,7.00
2023-04-21T07:03:27.247Z,18.00
2023-04-21T07:05:55.826Z,11.00
2023-04-21T07:08:25.886Z,3.67
2023-04-21T07:10:54.328Z,6.33
2023-04-21T07:13:22.773Z,6.00
2023-04-21T07:15:51.472Z,7.00
2023-04-21T07:18:19.949Z,6.67
2023-04-21T07:20:49.550Z,5.00
2023-04-21T07:23:19.575Z,7.00
2023-04-21T07:25:49.268Z,8.40
2023-04-21T07:28:18.865Z,7.00
2023-04-21T07:30:47.413Z,7.00
2023-04-21T07:33:16.428Z,4.00
2023-04-21T07:35:46.006Z,7.00
2023-04-21T07:38:15.648Z,6.20
2023-04-21T07:40:43.519Z,2.50
2023-04-21T07:43:11.438Z,9.00
2023-04-21T07:45:40.164Z,9.00
2023-04-21T07:48:09.739Z,6.80
2023-04-21T07:50:37.772Z,6.50
2023-04-21T07:53:06.562Z,7.00
2023-04-21T07:55:37.433Z,5.40
2023-04-21T07:58:06.988Z,6.00
2023-04-21T08:00:36.856Z,6.40
2023-04-21T08:03:04.753Z,3.50
2023-04-21T08:05:35.857Z,5.00
2023-04-21T08:08:06.029Z,8.00
2023-04-21T08:10:34.380Z,8.00
2023-04-21T08:13:06.618Z,8.60
2023-04-21T08:15:35.536Z,7.50
2023-04-21T08:18:03.331Z,8.00
2023-04-21T08:20:32.951Z,4.80
2023-04-21T08:23:01.539Z,7.67
2023-04-21T08:25:29.601Z,8.00
2023-04-21T08:28:02.043Z,8.20
2023-04-21T08:30:30.222Z,7.50
2023-04-21T08:32:59.896Z,4.80
2023-04-21T08:35:27.668Z,5.50
2023-04-21T08:37:57.677Z,4.40
2023-04-21T08:40:36.508Z,9.00
2023-04-21T08:43:10.069Z,7.50
2023-04-21T08:45:37.956Z,8.00
2023-04-21T08:48:07.247Z,5.00
2023-04-21T08:50:36.446Z,7.50
2023-04-21T08:53:04.272Z,11.00
2023-04-21T08:55:33.854Z,9.00
2023-04-21T08:58:07.100Z,6.60
2023-04-21T09:00:41.660Z,10.33
2023-04-21T09:03:23.187Z,13.67
2023-04-21T09:06:07.014Z,14.00
2023-04-21T09:08:43.130Z,12.00
2023-04-21T09:11:15.943Z,13.67
2023-04-21T09:13:45.573Z,9.40
2023-04-21T09:16:22.395Z,17.00
2023-04-21T09:18:51.902Z,5.67
2023-04-21T09:21:21.258Z,12.67
2023-04-21T09:23:52.664Z,15.00
2023-04-21T09:26:23.470Z,19.67
2023-04-21T09:28:53.840Z,13.00
2023-04-21T09:31:29.435Z,5.00
2023-04-21T09:34:00.779Z,16.00
2023-04-21T09:36:32.351Z,15.33
2023-04-21T09:41:35.507Z,17.33
2023-04-21T09:44:06.890Z,16.00
2023-04-21T09:46:37.875Z,12.00
2023-04-21T09:49:07.194Z,13.33
2023-04-21T09:54:33.025Z,9.50
2023-04-21T09:57:04.855Z,11.67
2023-04-21T09:59:47.618Z,5.00
2023-04-21T10:02:20.652Z,14.00
2023-04-21T10:04:49.507Z,7.67
2023-04-21T10:07:18.389Z,16.50
2023-04-21T10:09:56.880Z,16.33
2023-04-21T10:12:27.701Z,5.50
2023-04-21T10:14:58.522Z,4.00
2023-04-21T10:17:27.861Z,14.50
2023-04-21T10:19:59.673Z,16.33
2023-04-21T10:22:33.781Z,15.00
2023-04-21T10:25:04.971Z,14.50
2023-04-21T10:27:42.192Z,18.50
2023-04-21T10:30:23.261Z,13.33
2023-04-21T10:33:05.965Z,11.67
2023-04-21T10:36:03.020Z,13.67
2023-04-21T10:38:43.997Z,13.67
2023-04-21T10:41:30.861Z,6.80
2023-04-21T10:44:12.344Z,9.00
2023-04-21T10:47:01.243Z,14.00
2023-04-21T10:49:31.599Z,11.00
2023-04-21T10:52:00.518Z,16.00
2023-04-21T10:54:50.229Z,16.50
2023-04-21T10:57:20.864Z,16.00
2023-04-21T10:59:50.004Z,14.67
2023-04-21T11:02:20.127Z,15.67
2023-04-21T11:04:54.530Z,15.00
2023-04-21T11:07:25.464Z,9.67
2023-04-21T11:10:07.947Z,13.33
2023-04-21T11:12:41.874Z,5.20
2023-04-21T11:15:14.648Z,10.50
2023-04-21T11:17:47.443Z,16.50
2023-04-21T11:20:15.275Z,14.50
2023-04-21T11:22:43.782Z,15.00
2023-04-21T11:25:19.117Z,9.00
2023-04-21T11:27:56.787Z,13.00
2023-04-21T11:30:36.248Z,13.67
2023-04-21T11:33:05.077Z,12.00
2023-04-21T11:35:33.744Z,13.00
2023-04-21T11:38:08.852Z,13.00
2023-04-21T11:40:48.844Z,14.67
2023-04-21T11:43:17.769Z,12.00
2023-04-21T11:45:51.166Z,13.67
2023-04-21T11:48:20.068Z,16.33
2023-04-21T11:50:50.999Z,12.00
2023-04-21T11:53:20.294Z,16.00
2023-04-21T11:55:48.969Z,14.67
2023-04-21T11:58:18.175Z,14.00
2023-04-21T12:00:46.996Z,10.67
2023-04-21T12:03:16.480Z,14.00
2023-04-21T12:05:44.397Z,11.00
2023-04-21T12:08:16.725Z,7.00
2023-04-21T12:10:47.355Z,15.33
2023-04-21T12:13:23.929Z,13.00
2023-04-21T12:15:52.591Z,13.33
2023-04-21T12:18:21.598Z,11.33
2023-04-21T12:20:54.989Z,10.50
2023-04-21T12:23:23.690Z,12.33
2023-04-21T12:25:53.342Z,7.80
2023-04-21T12:28:21.309Z,6.00
2023-04-21T12:30:50.002Z,14.00
2023-04-21T12:33:17.959Z,14.00
2023-04-21T12:35:46.676Z,17.67
2023-04-21T12:38:14.552Z,14.50
2023-04-21T12:40:42.429Z,17.00
2023-04-21T12:43:11.083Z,15.00
2023-04-21T12:45:39.777Z,15.00
2023-04-21T12:48:08.492Z,12.00
2023-04-21T12:50:37.145Z,15.00
2023-04-21T12:53:05.822Z,16.50
2023-04-21T12:55:36.906Z,14.00
2023-04-21T12:58:05.552Z,17.00
2023-04-21T13:00:36.055Z,16.00
2023-04-21T13:03:05.069Z,16.00
2023-04-21T13:05:34.208Z,15.33
2023-04-21T13:08:02.876Z,12.33
2023-04-21T13:10:31.631Z,15.67
2023-04-21T13:13:00.295Z,18.00
2023-04-21T13:15:28.081Z,14.50
2023-04-21T13:17:55.900Z,16.00
2023-04-21T13:20:24.862Z,19.67
2023-04-21T13:22:53.602Z,24.67
2023-04-21T13:25:22.349Z,17.00
2023-04-21T13:27:52.874Z,15.00
2023-04-21T13:30:22.215Z,16.00
2023-04-21T13:32:51.031Z,15.67
2023-04-21T13:35:20.054Z,17.50
2023-04-21T13:37:50.372Z,45.00
2023-04-21T13:40:19.484Z,18.00
2023-04-21T13:42:48.183Z,17.00
2023-04-21T13:45:17.193Z,12.00
2023-04-21T13:47:46.759Z,12.00
2023-04-21T13:50:15.554Z,17.50
2023-04-21T13:52:44.679Z,11.67
2023-04-21T13:55:13.420Z,16.00
2023-04-21T13:57:42.435Z,17.00
2023-04-21T14:00:12.317Z,15.50
2023-04-21T14:02:42.181Z,16.00
2023-04-21T14:05:10.397Z,13.00
2023-04-21T14:07:39.292Z,17.33
2023-04-21T14:10:08.870Z,16.33
2023-04-21T14:12:37.552Z,14.50
2023-04-21T14:15:09.648Z,12.67
2023-04-21T14:17:38.369Z,17.67
2023-04-21T14:20:09.693Z,13.33
2023-04-21T14:22:39.816Z,14.00
2023-04-21T14:25:08.305Z,15.50
2023-04-21T14:27:37.172Z,20.00
2023-04-21T14:30:07.683Z,17.50
2023-04-21T14:32:36.384Z,17.00
2023-04-21T14:35:05.684Z,6.00
2023-04-21T14:37:35.250Z,24.33
2023-04-21T14:40:04.381Z,16.67
2023-04-21T14:42:33.346Z,14.33
2023-04-21T14:45:01.219Z,15.00
2023-04-21T14:47:29.821Z,14.00
2023-04-21T14:49:58.520Z,15.00
2023-04-21T14:52:27.672Z,15.50
2023-04-21T14:54:56.384Z,16.50
2023-04-21T14:57:24.991Z,16.00
2023-04-21T14:59:54.394Z,17.67
2023-04-21T15:02:23.256Z,15.50
2023-04-21T15:04:52.161Z,13.67
2023-04-21T15:07:24.316Z,16.00
2023-04-21T15:09:55.647Z,14.00
2023-04-21T15:12:24.372Z,12.67
2023-04-21T15:14:53.427Z,16.00
2023-04-21T15:17:22.030Z,13.67
2023-04-21T15:19:50.855Z,15.00
2023-04-21T15:22:19.682Z,14.00
2023-04-21T15:24:48.691Z,14.00
2023-04-21T15:27:17.766Z,14.00
2023-04-21T15:29:45.545Z,14.00
2023-04-21T15:32:15.186Z,18.33
2023-04-21T15:34:43.813Z,14.00
2023-04-21T15:37:12.578Z,19.67
2023-04-21T15:39:41.623Z,20.00
2023-04-21T15:42:10.381Z,15.67
2023-04-21T15:44:39.858Z,13.33
2023-04-21T15:47:08.590Z,16.67
2023-04-21T15:49:37.636Z,19.00
2023-04-21T15:52:07.292Z,18.00
2023-04-21T15:54:36.623Z,16.00
2023-04-21T15:57:05.905Z,17.00
2023-04-21T15:59:33.718Z,14.00
2023-04-21T16:02:02.747Z,15.50
2023-04-21T16:04:30.904Z,15.00
2023-04-21T16:06:59.681Z,15.50
2023-04-21T16:09:28.371Z,17.00
2023-04-21T16:11:57.611Z,17.50
2023-04-21T16:14:26.274Z,16.67
2023-04-21T16:16:55.031Z,17.00
2023-04-21T16:19:23.966Z,20.00
2023-04-21T16:21:53.472Z,18.33
2023-04-21T16:24:22.251Z,17.67
2023-04-21T16:26:51.023Z,24.00
2023-04-21T16:29:20.536Z,20.67
2023-04-21T16:31:49.278Z,16.33
2023-04-21T16:34:18.096Z,18.00
2023-04-21T16:36:47.474Z,21.33
2023-04-21T16:39:15.310Z,14.50
2023-04-21T16:41:44.005Z,16.50
2023-04-21T16:44:12.694Z,19.00
2023-04-21T16:46:41.607Z,20.00
2023-04-21T16:49:12.456Z,17.33
2023-04-21T16:51:44.781Z,18.33
2023-04-21T16:54:14.101Z,18.67
2023-04-21T16:56:42.865Z,18.67
2023-04-21T16:59:12.444Z,24.00
2023-04-21T17:01:41.296Z,21.67
2023-04-21T17:04:14.154Z,23.33
2023-04-21T17:06:43.358Z,25.33
2023-04-21T17:09:12.089Z,26.67
2023-04-21T17:11:41.637Z,41.00
2023-04-21T17:14:11.098Z,38.00
2023-04-21T17:16:40.968Z,38.33
2023-04-21T17:19:10.451Z,34.00
2023-04-21T17:21:39.121Z,33.33
2023-04-21T17:24:08.684Z,36.67
2023-04-21T17:26:37.720Z,40.00
2023-04-21T17:29:08.942Z,36.00
2023-04-21T17:31:38.713Z,37.00
2023-04-21T17:34:08.299Z,37.00
2023-04-21T17:36:37.072Z,36.33
2023-04-21T17:39:05.949Z,37.00
2023-04-21T17:41:35.537Z,43.33
2023-04-21T17:44:05.329Z,38.00
2023-04-21T17:46:34.218Z,39.00
2023-04-21T17:49:03.748Z,38.33
2023-04-21T17:51:32.854Z,39.67
2023-04-21T17:54:01.554Z,40.00
2023-04-21T17:56:31.247Z,42.67
2023-04-21T17:59:01.280Z,44.67
2023-04-21T18:01:31.141Z,43.00
2023-04-21T18:04:01.598Z,39.67
2023-04-21T18:06:31.992Z,44.00
2023-04-21T18:09:01.652Z,45.00
2023-04-21T18:11:31.470Z,55.00
2023-04-21T18:14:02.366Z,65.25
2023-04-21T18:16:30.302Z,86.00
2023-04-21T18:18:58.193Z,73.00
2023-04-21T18:21:28.467Z,87.00
2023-04-21T18:23:58.072Z,80.50
2023-04-21T18:26:29.127Z,86.00
2023-04-21T18:28:58.449Z,94.00
2023-04-21T18:31:29.054Z,81.67
2023-04-21T18:34:00.511Z,84.00
2023-04-21T18:36:32.480Z,82.75
2023-04-21T18:39:01.258Z,87.50
2023-04-21T18:41:30.841Z,60.67
2023-04-21T18:44:00.435Z,55.00
2023-04-21T18:46:37.900Z,54.00
2023-04-21T18:49:07.628Z,49.00
2023-04-21T18:51:37.238Z,50.25
2023-04-21T18:54:12.626Z,52.00
2023-04-21T18:56:41.501Z,51.67
2023-04-21T18:59:10.359Z,53.00
2023-04-21T19:01:40.566Z,51.67
2023-04-21T19:04:10.827Z,56.33
2023-04-21T19:06:39.885Z,54.67
2023-04-21T19:09:08.631Z,55.00
2023-04-21T19:11:38.354Z,61.25
2023-04-21T19:14:07.142Z,43.00
2023-04-21T19:16:36.898Z,47.33
2023-04-21T19:19:06.138Z,48.67
2023-04-21T19:21:35.802Z,46.00
2023-04-21T19:24:05.926Z,41.33
2023-04-21T19:26:35.832Z,42.33
2023-04-21T19:29:05.123Z,49.67
2023-04-21T19:31:33.944Z,50.00
2023-04-21T19:34:02.737Z,48.00
2023-04-21T19:36:31.693Z,48.00
2023-04-21T19:39:00.580Z,45.50
2023-04-21T19:41:30.151Z,46.33
2023-04-21T19:43:58.922Z,48.67
2023-04-21T19:46:28.596Z,47.75
2023-04-21T19:48:57.387Z,45.67
2023-04-21T19:51:28.076Z,49.67
2023-04-21T19:54:10.163Z,50.67
2023-04-21T19:56:41.142Z,59.67
2023-04-21T19:59:10.760Z,53.50
2023-04-21T20:01:39.922Z,53.67
2023-04-21T20:04:11.885Z,52.00
2023-04-21T20:06:41.844Z,53.33
2023-04-21T20:09:10.693Z,51.00
2023-04-21T20:11:39.463Z,50.33
2023-04-21T20:14:08.291Z,49.00
2023-04-21T20:16:38.303Z,49.67
2023-04-21T20:19:07.015Z,48.00
2023-04-21T20:21:36.628Z,48.33
2023-04-21T20:24:05.740Z,50.00
2023-04-21T20:26:35.645Z,50.33
2023-04-21T20:29:05.084Z,50.33
2023-04-21T20:31:34.818Z,47.00
2023-04-21T20:34:03.642Z,47.67
2023-04-21T20:36:33.749Z,49.67
2023-04-21T20:39:06.615Z,51.33
2023-04-21T20:41:35.386Z,53.33
2023-04-21T20:44:05.655Z,97.67
2023-04-21T20:46:35.353Z,47.33
2023-04-21T20:49:05.270Z,47.00
2023-04-21T20:51:35.126Z,48.67
2023-04-21T20:54:03.964Z,48.00
2023-04-21T20:56:33.587Z,47.33
2023-04-21T20:59:03.197Z,47.00
2023-04-21T21:01:37.009Z,48.00
2023-04-21T21:04:06.077Z,51.00
2023-04-21T21:06:35.213Z,50.33
2023-04-21T21:09:05.181Z,50.00
2023-04-21T21:11:33.940Z,50.00
2023-04-21T21:14:03.593Z,51.00
2023-04-21T21:16:33.265Z,49.00
2023-04-21T21:19:02.894Z,47.67
2023-04-21T21:21:31.838Z,48.67
2023-04-21T21:24:01.483Z,50.33
2023-04-21T21:26:30.829Z,49.33
2023-04-21T21:29:00.459Z,50.33
2023-04-21T21:31:30.145Z,47.33
2023-04-21T21:33:59.028Z,48.67
2023-04-21T21:36:28.628Z,47.67
2023-04-21T21:38:58.246Z,46.00
2023-04-21T21:41:27.935Z,49.00
2023-04-21T21:43:57.463Z,46.50
2023-04-21T21:46:27.125Z,46.00
2023-04-21T21:48:56.758Z,46.67
2023-04-21T21:51:28.114Z,46.67
2023-04-21T21:53:57.733Z,47.00
2023-04-21T21:56:27.716Z,44.67
2023-04-21T21:58:57.327Z,43.00
2023-04-21T22:01:26.229Z,44.00
2023-04-21T22:03:56.714Z,45.00
2023-04-21T22:06:28.717Z,46.33
2023-04-21T22:08:57.485Z,43.00
2023-04-21T22:11:26.290Z,44.00
2023-04-21T22:13:55.101Z,43.50
2023-04-21T22:16:24.692Z,45.33
2023-04-21T22:18:54.965Z,47.33
2023-04-21T22:21:28.510Z,46.67
2023-04-21T22:23:57.369Z,43.50
2023-04-21T22:26:26.864Z,33.67
2023-04-21T22:28:56.482Z,41.33
2023-04-21T22:31:26.118Z,37.00
2023-04-21T22:33:54.864Z,36.33
2023-04-21T22:36:24.881Z,38.00
2023-04-21T22:38:54.440Z,39.00
2023-04-21T22:41:23.288Z,38.00
2023-04-21T22:43:52.079Z,38.00
2023-04-21T22:46:21.160Z,41.00
2023-04-21T22:48:51.529Z,41.67
2023-04-21T22:51:21.712Z,39.00
2023-04-21T22:53:51.227Z,42.33
2023-04-21T22:56:19.996Z,39.00
2023-04-21T22:58:48.864Z,36.50
2023-04-21T23:01:17.713Z,40.50
2023-04-21T23:03:46.610Z,40.50
2023-04-21T23:06:15.456Z,40.00
2023-04-21T23:08:43.298Z,40.50
2023-04-21T23:11:12.133Z,42.00
2023-04-21T23:13:42.172Z,42.33
2023-04-21T23:16:10.998Z,41.00
2023-04-21T23:18:40.773Z,46.33
2023-04-21T23:21:09.533Z,46.00
2023-04-21T23:23:38.177Z,42.00
2023-04-21T23:26:06.984Z,43.50
2023-04-21T23:28:36.542Z,46.00
2023-04-21T23:31:06.327Z,46.33
2023-04-21T23:33:35.302Z,51.00
2023-04-21T23:36:05.093Z,48.00
2023-04-21T23:38:34.620Z,47.00
2023-04-21T23:41:04.206Z,38.67
2023-04-21T23:43:34.746Z,42.33
2023-04-21T23:46:04.792Z,39.33
2023-04-21T23:48:35.079Z,41.67
2023-04-21T23:51:04.074Z,40.00
2023-04-21T23:53:33.085Z,39.50
2023-04-21T23:56:02.678Z,40.67
2023-04-21T23:58:31.452Z,38.00
